sensor_id;sensor_type;location;lat;lon;timestamp;P1;P2;P0
72307;PMS5003;60257;42.638;23.376;2023-06-19T00:01:20;12.00;12.00;7.00
72307;PMS5003;60257;42.638;23.376;2023-06-19T00:03:46;12.25;12.25;9.75
72307;PMS5003;60257;42.638;23.376;2023-06-19T00:06:15;15.50;15.50;10.75
72307;PMS5003;60257;42.638;23.376;2023-06-19T00:08:40;16.25;16.25;11.25
72307;PMS5003;60257;42.638;23.376;2023-06-19T00:11:06;16.75;16.75;11.00
72307;PMS5003;60257;42.638;23.376;2023-06-19T00:13:32;13.25;13.25;8.75
72307;PMS5003;60257;42.638;23.376;2023-06-19T00:15:59;9.50;9.50;8.25
72307;PMS5003;60257;42.638;23.376;2023-06-19T00:18:26;15.25;15.25;10.00
72307;PMS5003;60257;42.638;23.376;2023-06-19T00:20:53;14.50;14.50;9.00
72307;PMS5003;60257;42.638;23.376;2023-06-19T00:23:21;10.50;10.50;6.00
72307;PMS5003;60257;42.638;23.376;2023-06-19T00:25:49;10.00;10.00;5.00
72307;PMS5003;60257;42.638;23.376;2023-06-19T00:28:15;14.50;14.50;9.00
72307;PMS5003;60257;42.638;23.376;2023-06-19T00:30:45;16.00;16.00;10.25
72307;PMS5003;60257;42.638;23.376;2023-06-19T00:33:11;11.75;11.25;7.25
72307;PMS5003;60257;42.638;23.376;2023-06-19T00:35:36;13.00;13.00;8.00
72307;PMS5003;60257;42.638;23.376;2023-06-19T00:38:02;11.50;11.50;7.25
72307;PMS5003;60257;42.638;23.376;2023-06-19T00:40:32;12.25;12.25;8.75
72307;PMS5003;60257;42.638;23.376;2023-06-19T00:43:01;16.25;16.25;11.00
72307;PMS5003;60257;42.638;23.376;2023-06-19T00:45:29;17.50;16.50;9.75
72307;PMS5003;60257;42.638;23.376;2023-06-19T00:47:55;13.25;13.25;9.25
72307;PMS5003;60257;42.638;23.376;2023-06-19T00:50:25;14.50;14.50;9.00
72307;PMS5003;60257;42.638;23.376;2023-06-19T00:52:55;14.00;13.75;9.00
72307;PMS5003;60257;42.638;23.376;2023-06-19T00:55:22;15.00;13.50;9.00
72307;PMS5003;60257;42.638;23.376;2023-06-19T00:57:47;17.25;16.00;11.00
72307;PMS5003;60257;42.638;23.376;2023-06-19T01:00:15;11.00;11.00;7.00
72307;PMS5003;60257;42.638;23.376;2023-06-19T01:02:40;14.50;14.00;9.75
72307;PMS5003;60257;42.638;23.376;2023-06-19T01:05:06;14.00;13.00;10.00
72307;PMS5003;60257;42.638;23.376;2023-06-19T01:07:44;12.50;12.50;8.00
72307;PMS5003;60257;42.638;23.376;2023-06-19T01:10:21;14.00;13.00;9.25
72307;PMS5003;60257;42.638;23.376;2023-06-19T01:12:55;9.00;9.00;8.00
72307;PMS5003;60257;42.638;23.376;2023-06-19T01:15:23;12.50;11.50;8.00
72307;PMS5003;60257;42.638;23.376;2023-06-19T01:17:50;11.25;11.25;8.25
72307;PMS5003;60257;42.638;23.376;2023-06-19T01:20:17;8.00;7.50;3.00
72307;PMS5003;60257;42.638;23.376;2023-06-19T01:22:43;13.00;13.00;9.00
72307;PMS5003;60257;42.638;23.376;2023-06-19T01:25:11;10.00;10.00;8.00
72307;PMS5003;60257;42.638;23.376;2023-06-19T01:27:40;11.50;11.50;6.50
72307;PMS5003;60257;42.638;23.376;2023-06-19T01:30:10;11.75;11.75;7.75
72307;PMS5003;60257;42.638;23.376;2023-06-19T01:35:23;13.50;13.50;9.00
72307;PMS5003;60257;42.638;23.376;2023-06-19T01:37:52;14.50;14.50;10.00
72307;PMS5003;60257;42.638;23.376;2023-06-19T01:40:19;15.25;15.25;10.75
72307;PMS5003;60257;42.638;23.376;2023-06-19T01:42:51;16.00;15.75;10.00
72307;PMS5003;60257;42.638;23.376;2023-06-19T01:45:18;11.25;11.25;7.75
72307;PMS5003;60257;42.638;23.376;2023-06-19T01:47:43;14.50;14.50;10.00
72307;PMS5003;60257;42.638;23.376;2023-06-19T01:50:09;15.50;15.25;10.75
72307;PMS5003;60257;42.638;23.376;2023-06-19T01:52:37;14.75;14.75;11.00
72307;PMS5003;60257;42.638;23.376;2023-06-19T01:55:03;15.75;15.75;11.75
72307;PMS5003;60257;42.638;23.376;2023-06-19T01:57:29;14.25;14.25;9.00
72307;PMS5003;60257;42.638;23.376;2023-06-19T01:59:55;15.50;15.50;9.25
72307;PMS5003;60257;42.638;23.376;2023-06-19T02:02:20;16.00;15.75;10.00
72307;PMS5003;60257;42.638;23.376;2023-06-19T02:04:46;13.75;13.00;9.25
72307;PMS5003;60257;42.638;23.376;2023-06-19T02:07:11;16.25;15.00;10.75
72307;PMS5003;60257;42.638;23.376;2023-06-19T02:09:37;14.25;13.50;9.00
72307;PMS5003;60257;42.638;23.376;2023-06-19T02:12:03;15.75;15.25;10.75
72307;PMS5003;60257;42.638;23.376;2023-06-19T02:14:29;16.00;16.00;9.75
72307;PMS5003;60257;42.638;23.376;2023-06-19T02:16:54;10.75;9.75;8.75
72307;PMS5003;60257;42.638;23.376;2023-06-19T02:19:20;18.50;15.00;10.00
72307;PMS5003;60257;42.638;23.376;2023-06-19T02:21:45;17.00;14.50;10.00
72307;PMS5003;60257;42.638;23.376;2023-06-19T02:24:10;15.25;15.25;10.00
72307;PMS5003;60257;42.638;23.376;2023-06-19T02:26:36;13.50;13.50;10.00
72307;PMS5003;60257;42.638;23.376;2023-06-19T02:29:01;15.00;15.00;11.00
72307;PMS5003;60257;42.638;23.376;2023-06-19T02:31:27;14.50;14.50;9.75
72307;PMS5003;60257;42.638;23.376;2023-06-19T02:33:52;17.25;16.00;10.75
72307;PMS5003;60257;42.638;23.376;2023-06-19T02:36:18;15.00;14.00;9.00
72307;PMS5003;60257;42.638;23.376;2023-06-19T02:38:50;17.00;15.50;9.25
72307;PMS5003;60257;42.638;23.376;2023-06-19T02:41:16;17.50;16.25;11.75
72307;PMS5003;60257;42.638;23.376;2023-06-19T02:43:44;15.50;15.50;11.00
72307;PMS5003;60257;42.638;23.376;2023-06-19T02:46:13;20.00;19.00;10.00
72307;PMS5003;60257;42.638;23.376;2023-06-19T02:48:39;17.00;16.00;10.00
72307;PMS5003;60257;42.638;23.376;2023-06-19T02:51:04;16.50;16.50;11.50
72307;PMS5003;60257;42.638;23.376;2023-06-19T02:53:30;14.75;14.75;10.50
72307;PMS5003;60257;42.638;23.376;2023-06-19T02:55:55;18.75;18.00;12.00
72307;PMS5003;60257;42.638;23.376;2023-06-19T02:58:21;24.25;22.50;13.00
72307;PMS5003;60257;42.638;23.376;2023-06-19T03:00:46;20.67;18.33;12.00
72307;PMS5003;60257;42.638;23.376;2023-06-19T03:03:12;20.50;19.00;12.25
72307;PMS5003;60257;42.638;23.376;2023-06-19T03:05:38;20.25;18.75;11.00
72307;PMS5003;60257;42.638;23.376;2023-06-19T03:08:03;14.00;13.25;9.00
72307;PMS5003;60257;42.638;23.376;2023-06-19T03:10:29;21.67;20.33;13.67
72307;PMS5003;60257;42.638;23.376;2023-06-19T03:12:55;19.50;18.50;12.75
72307;PMS5003;60257;42.638;23.376;2023-06-19T03:15:23;22.67;17.00;12.67
72307;PMS5003;60257;42.638;23.376;2023-06-19T03:17:49;22.00;22.00;13.33
72307;PMS5003;60257;42.638;23.376;2023-06-19T03:20:14;18.25;18.25;12.00
72307;PMS5003;60257;42.638;23.376;2023-06-19T03:22:40;23.67;23.67;13.67
72307;PMS5003;60257;42.638;23.376;2023-06-19T03:25:06;20.00;20.00;12.67
72307;PMS5003;60257;42.638;23.376;2023-06-19T03:27:32;23.00;22.33;14.00
72307;PMS5003;60257;42.638;23.376;2023-06-19T03:29:58;18.33;17.33;13.33
72307;PMS5003;60257;42.638;23.376;2023-06-19T03:32:23;21.25;21.25;13.75
72307;PMS5003;60257;42.638;23.376;2023-06-19T03:34:49;28.00;27.00;16.00
72307;PMS5003;60257;42.638;23.376;2023-06-19T03:37:14;20.25;19.75;12.25
72307;PMS5003;60257;42.638;23.376;2023-06-19T03:39:40;25.33;24.33;15.67
72307;PMS5003;60257;42.638;23.376;2023-06-19T03:42:06;24.50;24.00;13.00
72307;PMS5003;60257;42.638;23.376;2023-06-19T03:44:32;24.00;23.75;14.00
72307;PMS5003;60257;42.638;23.376;2023-06-19T03:46:57;26.33;26.33;16.00
72307;PMS5003;60257;42.638;23.376;2023-06-19T03:49:22;26.67;25.00;16.00
72307;PMS5003;60257;42.638;23.376;2023-06-19T03:51:48;26.33;26.33;18.33
72307;PMS5003;60257;42.638;23.376;2023-06-19T03:54:13;24.00;24.00;16.00
72307;PMS5003;60257;42.638;23.376;2023-06-19T03:56:39;28.67;27.33;18.00
72307;PMS5003;60257;42.638;23.376;2023-06-19T03:59:04;26.00;26.00;17.33
72307;PMS5003;60257;42.638;23.376;2023-06-19T04:01:30;25.67;24.33;15.00
72307;PMS5003;60257;42.638;23.376;2023-06-19T04:03:55;24.33;24.33;15.00
72307;PMS5003;60257;42.638;23.376;2023-06-19T04:06:21;22.00;21.00;14.00
72307;PMS5003;60257;42.638;23.376;2023-06-19T04:08:46;28.67;28.67;16.67
72307;PMS5003;60257;42.638;23.376;2023-06-19T04:11:12;31.33;31.00;20.67
72307;PMS5003;60257;42.638;23.376;2023-06-19T04:13:37;40.67;36.00;26.00
72307;PMS5003;60257;42.638;23.376;2023-06-19T04:16:03;31.00;29.67;21.00
72307;PMS5003;60257;42.638;23.376;2023-06-19T04:18:28;27.00;25.67;18.67
72307;PMS5003;60257;42.638;23.376;2023-06-19T04:20:54;24.00;22.67;14.33
72307;PMS5003;60257;42.638;23.376;2023-06-19T04:23:19;25.33;24.33;15.67
72307;PMS5003;60257;42.638;23.376;2023-06-19T04:25:45;31.67;28.33;19.33
72307;PMS5003;60257;42.638;23.376;2023-06-19T04:28:10;56.00;46.00;30.00
72307;PMS5003;60257;42.638;23.376;2023-06-19T04:30:36;51.00;42.67;28.00
72307;PMS5003;60257;42.638;23.376;2023-06-19T04:33:04;31.33;29.67;20.33
72307;PMS5003;60257;42.638;23.376;2023-06-19T04:35:31;24.00;23.25;16.75
72307;PMS5003;60257;42.638;23.376;2023-06-19T04:37:56;31.67;31.00;20.33
72307;PMS5003;60257;42.638;23.376;2023-06-19T04:40:26;26.33;26.00;16.00
72307;PMS5003;60257;42.638;23.376;2023-06-19T04:42:52;23.75;23.25;16.00
72307;PMS5003;60257;42.638;23.376;2023-06-19T04:45:19;28.67;28.67;19.67
72307;PMS5003;60257;42.638;23.376;2023-06-19T04:47:44;21.50;20.75;13.50
72307;PMS5003;60257;42.638;23.376;2023-06-19T04:50:10;21.50;21.50;16.25
72307;PMS5003;60257;42.638;23.376;2023-06-19T04:52:35;17.00;17.00;12.25
72307;PMS5003;60257;42.638;23.376;2023-06-19T04:55:02;25.00;22.50;15.50
72307;PMS5003;60257;42.638;23.376;2023-06-19T04:57:27;19.50;18.00;11.00
72307;PMS5003;60257;42.638;23.376;2023-06-19T04:59:53;19.00;19.00;11.75
72307;PMS5003;60257;42.638;23.376;2023-06-19T05:02:18;19.00;17.00;12.50
72307;PMS5003;60257;42.638;23.376;2023-06-19T05:04:44;17.25;16.25;12.00
72307;PMS5003;60257;42.638;23.376;2023-06-19T05:07:09;20.75;20.00;13.00
72307;PMS5003;60257;42.638;23.376;2023-06-19T05:09:36;20.25;20.25;14.00
72307;PMS5003;60257;42.638;23.376;2023-06-19T05:12:01;18.00;18.00;11.00
72307;PMS5003;60257;42.638;23.376;2023-06-19T05:14:26;17.75;16.50;10.50
72307;PMS5003;60257;42.638;23.376;2023-06-19T05:16:52;20.00;20.00;12.50
72307;PMS5003;60257;42.638;23.376;2023-06-19T05:19:18;20.00;17.25;11.75
72307;PMS5003;60257;42.638;23.376;2023-06-19T05:21:44;19.50;19.00;12.00
72307;PMS5003;60257;42.638;23.376;2023-06-19T05:24:09;20.25;19.00;12.00
72307;PMS5003;60257;42.638;23.376;2023-06-19T05:26:35;16.00;16.00;12.00
72307;PMS5003;60257;42.638;23.376;2023-06-19T05:29:00;15.25;14.75;9.75
72307;PMS5003;60257;42.638;23.376;2023-06-19T05:31:25;16.75;16.75;10.50
72307;PMS5003;60257;42.638;23.376;2023-06-19T05:33:51;17.00;16.00;11.75
72307;PMS5003;60257;42.638;23.376;2023-06-19T05:36:16;13.00;13.00;8.50
72307;PMS5003;60257;42.638;23.376;2023-06-19T05:38:42;16.50;15.50;9.50
72307;PMS5003;60257;42.638;23.376;2023-06-19T05:41:07;14.50;14.50;8.75
72307;PMS5003;60257;42.638;23.376;2023-06-19T05:43:33;17.25;16.50;8.75
72307;PMS5003;60257;42.638;23.376;2023-06-19T05:45:58;13.25;13.25;8.50
72307;PMS5003;60257;42.638;23.376;2023-06-19T05:48:24;14.75;14.75;11.50
72307;PMS5003;60257;42.638;23.376;2023-06-19T05:50:50;16.50;16.50;11.25
72307;PMS5003;60257;42.638;23.376;2023-06-19T05:53:16;13.50;12.50;8.50
72307;PMS5003;60257;42.638;23.376;2023-06-19T05:55:42;13.75;13.25;8.00
72307;PMS5003;60257;42.638;23.376;2023-06-19T05:58:08;17.75;15.00;9.75
72307;PMS5003;60257;42.638;23.376;2023-06-19T06:00:33;14.25;12.50;10.00
72307;PMS5003;60257;42.638;23.376;2023-06-19T06:02:59;14.50;14.50;10.25
72307;PMS5003;60257;42.638;23.376;2023-06-19T06:05:28;15.75;15.75;9.75
72307;PMS5003;60257;42.638;23.376;2023-06-19T06:07:56;10.00;10.00;7.00
72307;PMS5003;60257;42.638;23.376;2023-06-19T06:10:22;16.75;16.75;11.50
72307;PMS5003;60257;42.638;23.376;2023-06-19T06:12:49;13.00;13.00;8.50
72307;PMS5003;60257;42.638;23.376;2023-06-19T06:15:14;18.25;18.25;12.50
72307;PMS5003;60257;42.638;23.376;2023-06-19T06:17:40;17.00;16.00;10.25
72307;PMS5003;60257;42.638;23.376;2023-06-19T06:20:06;15.50;14.25;10.50
72307;PMS5003;60257;42.638;23.376;2023-06-19T06:22:39;22.25;22.00;10.75
72307;PMS5003;60257;42.638;23.376;2023-06-19T06:25:05;19.00;15.75;11.00
72307;PMS5003;60257;42.638;23.376;2023-06-19T06:27:31;15.50;14.75;10.00
72307;PMS5003;60257;42.638;23.376;2023-06-19T06:29:56;17.25;16.50;9.50
72307;PMS5003;60257;42.638;23.376;2023-06-19T06:32:22;15.00;15.00;8.50
72307;PMS5003;60257;42.638;23.376;2023-06-19T06:34:47;15.00;14.75;10.50
72307;PMS5003;60257;42.638;23.376;2023-06-19T06:37:13;16.25;16.25;12.00
72307;PMS5003;60257;42.638;23.376;2023-06-19T06:39:38;22.50;22.50;12.75
72307;PMS5003;60257;42.638;23.376;2023-06-19T06:42:04;16.25;15.00;10.75
72307;PMS5003;60257;42.638;23.376;2023-06-19T06:44:29;16.50;16.50;11.25
72307;PMS5003;60257;42.638;23.376;2023-06-19T06:46:55;15.25;13.75;9.00
72307;PMS5003;60257;42.638;23.376;2023-06-19T06:49:21;14.75;14.25;9.00
72307;PMS5003;60257;42.638;23.376;2023-06-19T06:51:47;16.75;15.75;9.00
72307;PMS5003;60257;42.638;23.376;2023-06-19T06:54:12;15.75;15.50;10.75
72307;PMS5003;60257;42.638;23.376;2023-06-19T06:56:38;18.00;15.25;10.25
72307;PMS5003;60257;42.638;23.376;2023-06-19T06:59:07;18.25;18.25;11.25
72307;PMS5003;60257;42.638;23.376;2023-06-19T07:01:32;20.50;18.75;12.00
72307;PMS5003;60257;42.638;23.376;2023-06-19T07:03:58;15.75;14.75;9.50
72307;PMS5003;60257;42.638;23.376;2023-06-19T07:06:23;14.75;13.00;8.25
72307;PMS5003;60257;42.638;23.376;2023-06-19T07:08:49;16.25;16.00;10.25
72307;PMS5003;60257;42.638;23.376;2023-06-19T07:11:14;15.00;15.00;9.25
72307;PMS5003;60257;42.638;23.376;2023-06-19T07:13:39;10.25;10.25;6.00
72307;PMS5003;60257;42.638;23.376;2023-06-19T07:16:06;13.75;11.75;6.00
72307;PMS5003;60257;42.638;23.376;2023-06-19T07:18:32;13.50;13.50;8.75
72307;PMS5003;60257;42.638;23.376;2023-06-19T07:21:00;16.50;14.50;9.25
72307;PMS5003;60257;42.638;23.376;2023-06-19T07:23:26;14.75;14.25;11.00
72307;PMS5003;60257;42.638;23.376;2023-06-19T07:25:51;14.50;14.50;8.75
72307;PMS5003;60257;42.638;23.376;2023-06-19T07:28:17;18.00;15.00;11.25
72307;PMS5003;60257;42.638;23.376;2023-06-19T07:30:42;17.00;16.75;10.25
72307;PMS5003;60257;42.638;23.376;2023-06-19T07:33:09;17.50;16.75;9.75
72307;PMS5003;60257;42.638;23.376;2023-06-19T07:35:35;15.50;15.25;9.00
72307;PMS5003;60257;42.638;23.376;2023-06-19T07:38:00;18.25;18.25;11.75
72307;PMS5003;60257;42.638;23.376;2023-06-19T07:40:26;15.75;14.25;10.25
72307;PMS5003;60257;42.638;23.376;2023-06-19T07:42:51;14.50;13.25;9.25
72307;PMS5003;60257;42.638;23.376;2023-06-19T07:45:17;14.25;13.50;7.00
72307;PMS5003;60257;42.638;23.376;2023-06-19T07:47:42;15.75;15.00;9.50
72307;PMS5003;60257;42.638;23.376;2023-06-19T07:50:08;11.50;11.50;7.25
72307;PMS5003;60257;42.638;23.376;2023-06-19T07:52:34;16.00;12.25;7.25
72307;PMS5003;60257;42.638;23.376;2023-06-19T07:54:59;16.75;16.75;11.00
72307;PMS5003;60257;42.638;23.376;2023-06-19T07:57:25;13.75;12.00;7.25
72307;PMS5003;60257;42.638;23.376;2023-06-19T07:59:52;17.25;17.25;11.25
72307;PMS5003;60257;42.638;23.376;2023-06-19T08:02:18;12.00;12.00;8.75
72307;PMS5003;60257;42.638;23.376;2023-06-19T08:04:45;13.50;11.25;8.00
72307;PMS5003;60257;42.638;23.376;2023-06-19T08:07:11;17.00;17.00;10.50
72307;PMS5003;60257;42.638;23.376;2023-06-19T08:09:36;17.00;14.00;9.00
72307;PMS5003;60257;42.638;23.376;2023-06-19T08:12:02;16.50;15.25;10.00
72307;PMS5003;60257;42.638;23.376;2023-06-19T08:14:27;15.75;13.25;9.00
72307;PMS5003;60257;42.638;23.376;2023-06-19T08:16:53;16.75;16.00;10.25
72307;PMS5003;60257;42.638;23.376;2023-06-19T08:19:19;16.50;16.50;9.50
72307;PMS5003;60257;42.638;23.376;2023-06-19T08:21:45;16.75;16.25;11.00
72307;PMS5003;60257;42.638;23.376;2023-06-19T08:24:10;11.00;11.00;7.50
72307;PMS5003;60257;42.638;23.376;2023-06-19T08:26:36;13.75;12.75;8.25
72307;PMS5003;60257;42.638;23.376;2023-06-19T08:29:01;11.25;9.50;8.25
72307;PMS5003;60257;42.638;23.376;2023-06-19T08:31:26;7.75;7.00;3.75
72307;PMS5003;60257;42.638;23.376;2023-06-19T08:33:56;14.50;14.50;10.00
72307;PMS5003;60257;42.638;23.376;2023-06-19T08:36:21;16.00;15.00;9.50
72307;PMS5003;60257;42.638;23.376;2023-06-19T08:38:47;19.25;18.50;11.00
72307;PMS5003;60257;42.638;23.376;2023-06-19T08:41:15;12.00;12.00;9.00
72307;PMS5003;60257;42.638;23.376;2023-06-19T08:43:44;7.50;7.50;3.25
72307;PMS5003;60257;42.638;23.376;2023-06-19T08:46:19;14.75;14.75;9.00
72307;PMS5003;60257;42.638;23.376;2023-06-19T08:48:44;13.25;13.00;9.25
72307;PMS5003;60257;42.638;23.376;2023-06-19T08:51:11;13.75;13.75;7.75
72307;PMS5003;60257;42.638;23.376;2023-06-19T08:56:32;14.00;12.50;7.75
72307;PMS5003;60257;42.638;23.376;2023-06-19T08:59:12;12.25;12.25;7.50
72307;PMS5003;60257;42.638;23.376;2023-06-19T09:01:39;12.50;12.50;9.25
72307;PMS5003;60257;42.638;23.376;2023-06-19T09:04:14;13.75;13.00;8.00
72307;PMS5003;60257;42.638;23.376;2023-06-19T09:06:49;16.50;15.00;7.50
72307;PMS5003;60257;42.638;23.376;2023-06-19T09:09:17;13.25;12.75;8.50
72307;PMS5003;60257;42.638;23.376;2023-06-19T09:11:56;12.75;12.75;9.50
72307;PMS5003;60257;42.638;23.376;2023-06-19T09:14:35;14.00;14.00;8.00
72307;PMS5003;60257;42.638;23.376;2023-06-19T09:17:02;12.25;12.25;9.00
72307;PMS5003;60257;42.638;23.376;2023-06-19T09:19:28;14.75;14.25;10.00
72307;PMS5003;60257;42.638;23.376;2023-06-19T09:22:04;15.50;14.75;9.25
72307;PMS5003;60257;42.638;23.376;2023-06-19T09:24:36;11.75;11.25;7.50
72307;PMS5003;60257;42.638;23.376;2023-06-19T09:27:10;7.75;6.75;3.50
72307;PMS5003;60257;42.638;23.376;2023-06-19T09:29:42;14.75;14.75;9.00
72307;PMS5003;60257;42.638;23.376;2023-06-19T09:32:21;10.25;10.25;6.75
72307;PMS5003;60257;42.638;23.376;2023-06-19T09:34:48;15.75;13.25;9.25
72307;PMS5003;60257;42.638;23.376;2023-06-19T09:37:23;14.50;13.00;10.00
72307;PMS5003;60257;42.638;23.376;2023-06-19T09:40:00;14.75;14.75;9.50
72307;PMS5003;60257;42.638;23.376;2023-06-19T09:42:36;9.50;7.00;3.25
72307;PMS5003;60257;42.638;23.376;2023-06-19T09:45:07;15.00;14.00;7.50
72307;PMS5003;60257;42.638;23.376;2023-06-19T09:50:11;10.25;10.25;6.75
72307;PMS5003;60257;42.638;23.376;2023-06-19T09:52:39;12.25;12.25;7.75
72307;PMS5003;60257;42.638;23.376;2023-06-19T09:55:06;18.25;16.00;10.00
72307;PMS5003;60257;42.638;23.376;2023-06-19T09:57:33;13.50;13.50;7.75
72307;PMS5003;60257;42.638;23.376;2023-06-19T10:00:00;12.00;12.00;7.00
72307;PMS5003;60257;42.638;23.376;2023-06-19T10:02:37;13.00;12.75;7.75
72307;PMS5003;60257;42.638;23.376;2023-06-19T10:05:08;13.75;13.50;9.00
72307;PMS5003;60257;42.638;23.376;2023-06-19T10:07:40;15.50;14.50;8.50
72307;PMS5003;60257;42.638;23.376;2023-06-19T10:10:08;11.75;11.75;6.75
72307;PMS5003;60257;42.638;23.376;2023-06-19T10:12:41;9.75;9.75;6.75
72307;PMS5003;60257;42.638;23.376;2023-06-19T10:17:34;13.25;12.75;9.00
72307;PMS5003;60257;42.638;23.376;2023-06-19T10:20:00;12.50;12.50;8.25
72307;PMS5003;60257;42.638;23.376;2023-06-19T10:22:32;10.75;10.75;6.50
72307;PMS5003;60257;42.638;23.376;2023-06-19T10:24:57;10.75;10.50;7.00
72307;PMS5003;60257;42.638;23.376;2023-06-19T10:27:24;9.75;9.75;4.50
72307;PMS5003;60257;42.638;23.376;2023-06-19T10:29:53;8.75;8.75;5.25
72307;PMS5003;60257;42.638;23.376;2023-06-19T10:32:22;13.25;11.25;6.75
72307;PMS5003;60257;42.638;23.376;2023-06-19T10:34:48;15.50;15.25;8.75
72307;PMS5003;60257;42.638;23.376;2023-06-19T10:37:16;14.50;14.50;10.50
72307;PMS5003;60257;42.638;23.376;2023-06-19T10:39:42;15.50;15.50;9.75
72307;PMS5003;60257;42.638;23.376;2023-06-19T10:42:09;10.50;10.50;7.00
72307;PMS5003;60257;42.638;23.376;2023-06-19T10:44:35;11.00;11.00;6.25
72307;PMS5003;60257;42.638;23.376;2023-06-19T10:47:03;10.50;10.50;7.00
72307;PMS5003;60257;42.638;23.376;2023-06-19T10:49:29;13.00;12.00;6.50
72307;PMS5003;60257;42.638;23.376;2023-06-19T10:51:55;11.25;11.25;8.50
72307;PMS5003;60257;42.638;23.376;2023-06-19T10:54:24;12.25;12.25;6.75
72307;PMS5003;60257;42.638;23.376;2023-06-19T10:56:50;10.00;10.00;7.00
72307;PMS5003;60257;42.638;23.376;2023-06-19T10:59:16;12.00;12.00;9.25
72307;PMS5003;60257;42.638;23.376;2023-06-19T11:01:45;11.75;11.75;8.00
72307;PMS5003;60257;42.638;23.376;2023-06-19T11:04:11;13.00;13.00;9.00
72307;PMS5003;60257;42.638;23.376;2023-06-19T11:06:38;12.50;12.50;7.50
72307;PMS5003;60257;42.638;23.376;2023-06-19T11:09:06;12.75;12.75;8.50
72307;PMS5003;60257;42.638;23.376;2023-06-19T11:14:08;12.00;12.00;7.25
72307;PMS5003;60257;42.638;23.376;2023-06-19T11:16:37;15.75;14.50;9.00
72307;PMS5003;60257;42.638;23.376;2023-06-19T11:19:06;13.00;13.00;8.75
72307;PMS5003;60257;42.638;23.376;2023-06-19T11:21:40;15.50;15.50;9.00
72307;PMS5003;60257;42.638;23.376;2023-06-19T11:24:06;14.50;14.50;8.00
72307;PMS5003;60257;42.638;23.376;2023-06-19T11:26:39;11.75;11.75;7.25
72307;PMS5003;60257;42.638;23.376;2023-06-19T11:29:29;11.50;11.50;7.50
72307;PMS5003;60257;42.638;23.376;2023-06-19T11:32:14;17.50;15.50;10.75
72307;PMS5003;60257;42.638;23.376;2023-06-19T11:34:49;15.50;15.50;9.50
72307;PMS5003;60257;42.638;23.376;2023-06-19T11:37:18;14.50;14.50;10.50
72307;PMS5003;60257;42.638;23.376;2023-06-19T11:39:46;13.75;13.75;8.50
72307;PMS5003;60257;42.638;23.376;2023-06-19T11:42:12;14.50;13.50;9.50
72307;PMS5003;60257;42.638;23.376;2023-06-19T11:47:31;11.25;10.25;5.50
72307;PMS5003;60257;42.638;23.376;2023-06-19T11:49:57;16.75;15.50;10.50
72307;PMS5003;60257;42.638;23.376;2023-06-19T11:52:23;15.00;15.00;10.50
72307;PMS5003;60257;42.638;23.376;2023-06-19T11:54:49;15.75;15.75;10.50
72307;PMS5003;60257;42.638;23.376;2023-06-19T11:57:15;16.25;16.00;9.00
72307;PMS5003;60257;42.638;23.376;2023-06-19T11:59:40;15.00;13.75;9.75
72307;PMS5003;60257;42.638;23.376;2023-06-19T12:02:07;16.50;14.50;10.25
72307;PMS5003;60257;42.638;23.376;2023-06-19T12:04:33;14.75;13.50;9.75
72307;PMS5003;60257;42.638;23.376;2023-06-19T12:06:59;16.25;16.25;11.50
72307;PMS5003;60257;42.638;23.376;2023-06-19T12:09:25;14.50;14.50;10.75
72307;PMS5003;60257;42.638;23.376;2023-06-19T12:11:50;14.50;14.00;8.50
72307;PMS5003;60257;42.638;23.376;2023-06-19T12:14:16;17.25;15.50;10.75
72307;PMS5003;60257;42.638;23.376;2023-06-19T12:16:43;19.50;18.50;12.00
72307;PMS5003;60257;42.638;23.376;2023-06-19T12:19:10;12.75;12.75;9.00
72307;PMS5003;60257;42.638;23.376;2023-06-19T12:21:36;19.00;17.25;14.25
72307;PMS5003;60257;42.638;23.376;2023-06-19T12:24:01;20.25;19.25;12.50
72307;PMS5003;60257;42.638;23.376;2023-06-19T12:26:27;18.75;18.75;12.00
72307;PMS5003;60257;42.638;23.376;2023-06-19T12:28:53;14.75;13.75;10.00
72307;PMS5003;60257;42.638;23.376;2023-06-19T12:31:18;11.25;11.00;8.25
72307;PMS5003;60257;42.638;23.376;2023-06-19T12:33:44;19.25;17.25;13.00
72307;PMS5003;60257;42.638;23.376;2023-06-19T12:36:13;13.50;13.50;9.75
72307;PMS5003;60257;42.638;23.376;2023-06-19T12:38:40;13.25;13.25;8.75
72307;PMS5003;60257;42.638;23.376;2023-06-19T12:41:05;13.00;13.00;8.00
72307;PMS5003;60257;42.638;23.376;2023-06-19T12:43:31;13.00;13.00;9.00
72307;PMS5003;60257;42.638;23.376;2023-06-19T12:46:00;15.00;15.00;9.25
72307;PMS5003;60257;42.638;23.376;2023-06-19T12:48:26;16.25;16.25;10.75
72307;PMS5003;60257;42.638;23.376;2023-06-19T12:50:52;17.00;17.00;10.50
72307;PMS5003;60257;42.638;23.376;2023-06-19T12:53:17;15.75;15.75;9.00
72307;PMS5003;60257;42.638;23.376;2023-06-19T12:55:46;13.75;13.75;9.50
72307;PMS5003;60257;42.638;23.376;2023-06-19T12:58:12;13.50;13.50;9.75
72307;PMS5003;60257;42.638;23.376;2023-06-19T13:00:37;13.75;13.75;10.00
72307;PMS5003;60257;42.638;23.376;2023-06-19T13:03:03;14.00;14.00;10.00
72307;PMS5003;60257;42.638;23.376;2023-06-19T13:05:28;13.25;13.00;7.75
72307;PMS5003;60257;42.638;23.376;2023-06-19T13:07:54;15.25;14.75;9.25
72307;PMS5003;60257;42.638;23.376;2023-06-19T13:10:19;15.50;13.75;9.25
72307;PMS5003;60257;42.638;23.376;2023-06-19T13:12:45;13.50;13.50;9.75
72307;PMS5003;60257;42.638;23.376;2023-06-19T13:15:11;16.00;16.00;10.00
72307;PMS5003;60257;42.638;23.376;2023-06-19T13:17:36;16.50;13.50;9.00
72307;PMS5003;60257;42.638;23.376;2023-06-19T13:20:02;13.75;13.75;9.00
72307;PMS5003;60257;42.638;23.376;2023-06-19T13:22:29;17.50;15.25;10.00
72307;PMS5003;60257;42.638;23.376;2023-06-19T13:24:55;16.75;16.00;10.25
72307;PMS5003;60257;42.638;23.376;2023-06-19T13:27:20;14.00;14.00;8.50
72307;PMS5003;60257;42.638;23.376;2023-06-19T13:29:46;16.25;14.75;10.75
72307;PMS5003;60257;42.638;23.376;2023-06-19T13:32:11;15.00;15.00;9.75
72307;PMS5003;60257;42.638;23.376;2023-06-19T13:34:37;14.50;14.50;10.75
72307;PMS5003;60257;42.638;23.376;2023-06-19T13:37:02;16.00;15.50;10.00
72307;PMS5003;60257;42.638;23.376;2023-06-19T13:39:30;14.50;14.50;8.75
72307;PMS5003;60257;42.638;23.376;2023-06-19T13:41:56;17.00;14.75;9.00
72307;PMS5003;60257;42.638;23.376;2023-06-19T13:44:22;15.00;15.00;10.00
72307;PMS5003;60257;42.638;23.376;2023-06-19T13:46:47;16.00;16.00;10.50
72307;PMS5003;60257;42.638;23.376;2023-06-19T13:49:14;9.50;9.00;5.00
72307;PMS5003;60257;42.638;23.376;2023-06-19T13:51:39;21.50;20.25;13.50
72307;PMS5003;60257;42.638;23.376;2023-06-19T13:54:06;24.75;24.75;16.00
72307;PMS5003;60257;42.638;23.376;2023-06-19T13:56:32;12.50;12.50;8.00